Time;durP1;ratioP1;P1;durP2;ratioP2;P2;SDS_P1;SDS_P2;PMS_P1;PMS_P2;Temp;Humidity;BMP_temperature;BMP_pressure;BME280_temperature;BME280_humidity;BME280_pressure;Samples;Min_cycle;Max_cycle;Signal;HPM_P1;HPM_P2
2022/01/19 00:01:38;;;;;;;33.73;7.67;;;5.20;99.90;;;;;;5143785;28;20216;-51
2022/01/19 00:04:11;;;;;;;10.23;6.40;;;5.30;99.90;;;;;;5124153;28;20440;-52
2022/01/19 00:06:42;;;;;;;11.87;6.40;;;5.30;99.90;;;;;;5140773;28;20920;-51
2022/01/19 00:09:12;;;;;;;17.80;6.87;;;5.30;99.90;;;;;;5143080;28;20540;-52
2022/01/19 00:11:43;;;;;;;15.50;5.63;;;5.30;99.90;;;;;;5122049;28;20201;-52
2022/01/19 00:14:13;;;;;;;17.80;6.40;;;5.30;99.90;;;;;;5142030;28;20211;-51
2022/01/19 00:16:44;;;;;;;13.73;6.27;;;5.30;99.90;;;;;;5144618;28;20196;-53
2022/01/19 00:19:15;;;;;;;12.13;6.40;;;5.40;99.90;;;;;;5139192;28;20216;-50
2022/01/19 00:21:45;;;;;;;12.10;6.20;;;5.30;99.90;;;;;;5147969;28;20373;-52
2022/01/19 00:24:16;;;;;;;10.63;6.50;;;5.20;99.90;;;;;;5141548;28;20518;-51
2022/01/19 00:26:47;;;;;;;14.43;6.50;;;5.20;99.90;;;;;;5141021;28;20191;-51
2022/01/19 00:29:17;;;;;;;13.90;6.73;;;5.20;99.90;;;;;;5137172;28;20188;-51
2022/01/19 00:31:48;;;;;;;9.03;5.70;;;5.20;99.90;;;;;;5131411;28;20222;-51
2022/01/19 00:34:18;;;;;;;14.93;6.60;;;5.40;99.90;;;;;;5144183;28;20663;-52
2022/01/19 00:36:50;;;;;;;24.27;6.70;;;5.30;99.90;;;;;;5141162;28;20187;-52
2022/01/19 00:39:20;;;;;;;11.40;6.63;;;5.30;99.90;;;;;;5141220;28;20179;-50
2022/01/19 00:41:51;;;;;;;17.57;7.30;;;5.30;99.90;;;;;;5122561;28;20483;-51
2022/01/19 00:44:21;;;;;;;21.63;6.60;;;5.40;99.90;;;;;;5120195;28;20199;-52
2022/01/19 00:46:52;;;;;;;10.10;6.97;;;5.30;99.90;;;;;;5121848;29;20184;-52
2022/01/19 00:49:22;;;;;;;16.60;7.00;;;5.30;99.90;;;;;;5106177;29;20184;-52
2022/01/19 00:51:53;;;;;;;13.77;7.67;;;5.30;99.90;;;;;;5111109;29;20271;-52
2022/01/19 00:54:23;;;;;;;13.03;8.00;;;5.30;99.90;;;;;;5126714;29;20192;-50
2022/01/19 00:56:54;;;;;;;18.60;8.67;;;5.30;99.90;;;;;;5112536;29;20185;-51
2022/01/19 00:59:24;;;;;;;26.67;8.23;;;5.30;99.90;;;;;;5125317;29;20487;-51
2022/01/19 01:01:55;;;;;;;15.33;8.57;;;5.30;99.90;;;;;;5125787;29;20229;-52
2022/01/19 01:04:26;;;;;;;22.10;9.00;;;5.30;99.90;;;;;;5124210;29;21102;-50
2022/01/19 01:06:56;;;;;;;11.47;7.03;;;5.30;99.90;;;;;;5109637;29;20189;-53
2022/01/19 01:09:27;;;;;;;19.43;8.97;;;5.20;99.90;;;;;;5126753;28;20193;-50
2022/01/19 01:12:10;;;;;;;20.40;8.67;;;5.20;99.90;;;;;;5127525;28;20181;-52
2022/01/19 01:20:20;;;;;;;15.63;7.03;;;5.20;99.90;;;;;;5126294;28;20479;-52
2022/01/19 01:22:50;;;;;;;12.73;7.60;;;5.20;99.90;;;;;;5127024;29;20929;-52
2022/01/19 01:25:24;;;;;;;21.87;6.87;;;5.20;99.90;;;;;;5121765;28;20534;-54
2022/01/19 01:27:54;;;;;;;17.60;7.10;;;5.20;99.90;;;;;;5109035;29;20189;-51
2022/01/19 01:30:25;;;;;;;16.73;7.90;;;5.20;99.90;;;;;;5126001;28;20469;-52
2022/01/19 01:32:56;;;;;;;16.70;7.70;;;5.20;99.90;;;;;;5124212;29;20195;-52
2022/01/19 01:35:26;;;;;;;14.70;8.97;;;5.30;99.90;;;;;;5123252;29;20532;-51
2022/01/19 01:38:00;;;;;;;21.63;7.37;;;5.30;99.90;;;;;;5128033;29;20865;-50
2022/01/19 01:40:33;;;;;;;22.93;8.13;;;5.30;99.90;;;;;;5112470;28;20231;-50
2022/01/19 01:43:07;;;;;;;21.27;9.40;;;5.20;99.90;;;;;;5107415;29;20433;-51
2022/01/19 01:45:41;;;;;;;15.80;8.70;;;5.20;99.90;;;;;;5128260;28;20429;-51
2022/01/19 01:48:16;;;;;;;13.40;8.17;;;5.20;99.90;;;;;;5125736;28;20436;-52
2022/01/19 01:53:38;;;;;;;15.80;8.50;;;5.20;99.90;;;;;;5128321;28;20442;-50
2022/01/19 01:56:13;;;;;;;22.73;9.77;;;5.20;99.90;;;;;;5108111;28;20812;-50
2022/01/19 01:58:46;;;;;;;18.47;9.53;;;5.30;99.90;;;;;;5125941;28;20773;-52
2022/01/19 02:01:17;;;;;;;17.40;9.83;;;5.20;99.90;;;;;;5125612;28;20818;-51
2022/01/19 02:03:48;;;;;;;19.63;10.20;;;5.20;99.90;;;;;;5128582;28;20443;-52
2022/01/19 02:08:57;;;;;;;29.77;12.00;;;5.10;99.90;;;;;;5126771;28;20197;-51
2022/01/19 02:22:07;;;;;;;24.30;11.00;;;5.10;99.90;;;;;;5108689;29;20210;-52
2022/01/19 02:24:44;;;;;;;33.83;11.27;;;5.10;99.90;;;;;;5126186;28;20752;-51
2022/01/19 02:30:48;;;;;;;15.80;9.20;;;5.10;99.90;;;;;;5125492;28;20467;-51
2022/01/19 02:41:36;;;;;;;25.87;9.97;;;5.10;99.90;;;;;;5139637;28;20526;-52
2022/01/19 02:44:14;;;;;;;18.87;9.10;;;5.10;99.90;;;;;;5133391;28;20437;-52
2022/01/19 02:49:24;;;;;;;20.17;9.80;;;5.20;99.90;;;;;;5140096;28;20431;-51
2022/01/19 02:51:54;;;;;;;25.47;10.93;;;5.20;99.90;;;;;;5145027;28;20489;-51
2022/01/19 02:54:25;;;;;;;35.93;11.67;;;5.20;99.90;;;;;;5124959;28;20658;-51
2022/01/19 02:56:59;;;;;;;19.90;9.80;;;5.20;99.90;;;;;;5129147;28;20529;-52
2022/01/19 03:10:53;;;;;;;19.77;8.80;;;5.20;99.90;;;;;;5141209;28;20459;-51
2022/01/19 03:13:23;;;;;;;13.40;7.70;;;5.20;99.90;;;;;;5143165;28;20424;-51
2022/01/19 03:15:54;;;;;;;19.30;7.83;;;5.20;99.90;;;;;;5144166;28;20702;-50
2022/01/19 03:18:24;;;;;;;15.97;7.67;;;5.20;99.90;;;;;;5125962;28;20176;-51
2022/01/19 03:20:55;;;;;;;14.87;8.27;;;5.20;99.90;;;;;;5119688;28;20211;-52
2022/01/19 03:23:26;;;;;;;21.50;8.60;;;5.20;99.90;;;;;;5144389;28;20179;-52
2022/01/19 03:25:58;;;;;;;19.60;7.87;;;5.20;99.90;;;;;;5130039;28;20676;-50
2022/01/19 03:28:28;;;;;;;19.43;7.87;;;5.30;99.90;;;;;;5127287;28;20185;-52
2022/01/19 03:30:59;;;;;;;27.70;9.33;;;5.40;99.90;;;;;;5124609;28;20463;-52
2022/01/19 03:33:30;;;;;;;22.70;8.57;;;5.30;99.90;;;;;;5137739;28;20284;-51
2022/01/19 03:36:01;;;;;;;22.90;8.67;;;5.30;99.90;;;;;;5124322;28;20534;-51
2022/01/19 03:38:31;;;;;;;12.63;7.10;;;5.30;99.90;;;;;;5144969;28;20327;-52
2022/01/19 03:41:03;;;;;;;13.43;8.00;;;5.20;99.90;;;;;;5172127;23;20249;-47
2022/01/19 03:43:34;;;;;;;20.97;8.37;;;5.20;99.90;;;;;;5157577;28;20430;-50
2022/01/19 03:46:12;;;;;;;19.10;9.37;;;5.20;99.90;;;;;;5145866;28;20203;-47
2022/01/19 03:48:57;;;;;;;23.93;9.53;;;5.30;99.90;;;;;;5159752;28;20187;-50
2022/01/19 03:51:27;;;;;;;25.47;9.13;;;5.20;99.90;;;;;;5142678;28;20521;-47
2022/01/19 03:53:58;;;;;;;24.00;9.53;;;5.20;99.90;;;;;;5148421;28;20435;-48
2022/01/19 03:56:28;;;;;;;19.87;9.53;;;5.20;99.90;;;;;;5160919;28;20715;-48
2022/01/19 03:59:02;;;;;;;23.50;9.00;;;5.10;99.90;;;;;;5162152;28;20186;-47
2022/01/19 04:01:32;;;;;;;13.77;8.80;;;5.20;99.90;;;;;;5160864;28;20228;-47
2022/01/19 04:04:25;;;;;;;21.07;9.50;;;5.20;99.90;;;;;;5162231;28;20957;-47
2022/01/19 04:07:08;;;;;;;17.90;9.33;;;5.20;99.90;;;;;;5158177;28;20178;-47
2022/01/19 04:09:43;;;;;;;13.30;9.20;;;5.20;99.90;;;;;;5163055;28;20447;-48
2022/01/19 04:12:19;;;;;;;13.43;8.43;;;5.20;99.90;;;;;;5164689;28;20823;-47
2022/01/19 04:14:53;;;;;;;20.70;9.13;;;5.20;99.90;;;;;;5162711;28;20430;-49
2022/01/19 04:17:26;;;;;;;20.87;10.00;;;5.10;99.90;;;;;;5161634;28;20444;-50
2022/01/19 04:19:59;;;;;;;16.53;9.43;;;5.20;99.90;;;;;;5157669;28;21010;-47
2022/01/19 04:22:30;;;;;;;30.03;10.43;;;5.10;99.90;;;;;;5167195;28;20445;-47
2022/01/19 04:25:00;;;;;;;27.47;11.27;;;5.20;99.90;;;;;;5168965;28;20448;-47
2022/01/19 04:27:32;;;;;;;20.87;12.07;;;5.10;99.90;;;;;;5166791;28;20179;-47
2022/01/19 04:30:11;;;;;;;22.53;12.40;;;5.10;99.90;;;;;;5171036;28;20249;-47
2022/01/19 04:35:30;;;;;;;26.47;10.37;;;5.00;99.90;;;;;;5156994;28;20506;-47
2022/01/19 04:54:46;;;;;;;20.97;11.50;;;5.00;99.90;;;;;;5152057;28;20430;-48
2022/01/19 05:05:38;;;;;;;16.30;9.80;;;4.90;99.90;;;;;;5164392;28;20472;-48
2022/01/19 05:08:19;;;;;;;28.33;11.70;;;4.90;99.90;;;;;;5161774;28;20782;-48
2022/01/19 05:13:39;;;;;;;29.57;12.47;;;4.90;99.90;;;;;;5165846;28;20588;-47
2022/01/19 05:16:09;;;;;;;21.57;11.80;;;4.90;99.90;;;;;;5164443;28;20526;-47
2022/01/19 05:18:40;;;;;;;28.73;12.57;;;4.90;99.90;;;;;;5147548;28;20269;-49
2022/01/19 05:21:10;;;;;;;24.30;10.30;;;4.90;99.90;;;;;;5163095;28;20682;-48
2022/01/19 05:23:41;;;;;;;23.03;11.07;;;4.90;99.90;;;;;;5164262;28;20197;-51
2022/01/19 05:26:12;;;;;;;21.53;11.70;;;4.90;99.90;;;;;;5164991;28;20522;-50
2022/01/19 05:28:42;;;;;;;21.00;11.80;;;4.90;99.90;;;;;;5146782;28;20237;-48
2022/01/19 05:31:13;;;;;;;23.87;11.63;;;5.00;99.90;;;;;;5148912;28;20766;-49
2022/01/19 05:33:43;;;;;;;24.47;12.50;;;5.00;99.90;;;;;;5164701;28;20180;-48
2022/01/19 05:36:14;;;;;;;24.23;11.37;;;4.90;99.90;;;;;;5163886;28;20647;-47
2022/01/19 05:38:44;;;;;;;17.63;11.23;;;4.90;99.90;;;;;;5148922;28;20338;-49
2022/01/19 05:41:15;;;;;;;20.00;10.67;;;4.90;99.90;;;;;;5143886;28;20238;-47
2022/01/19 05:43:46;;;;;;;35.00;13.03;;;4.90;99.90;;;;;;5163470;28;20198;-49
2022/01/19 05:46:16;;;;;;;28.13;12.60;;;4.90;99.90;;;;;;5146576;28;20187;-48
2022/01/19 05:48:46;;;;;;;26.30;12.67;;;4.90;99.90;;;;;;5160705;28;20271;-47
2022/01/19 05:51:17;;;;;;;17.57;11.30;;;4.90;99.90;;;;;;5161934;28;20668;-49
2022/01/19 05:53:49;;;;;;;22.30;11.30;;;4.90;99.90;;;;;;5161034;28;20199;-52
2022/01/19 05:56:19;;;;;;;22.50;11.67;;;4.90;99.90;;;;;;5161940;28;20183;-48
2022/01/19 05:58:50;;;;;;;18.00;11.67;;;4.90;99.90;;;;;;5147774;28;20443;-49
2022/01/19 06:01:20;;;;;;;17.77;11.67;;;4.90;99.90;;;;;;5160139;28;20330;-48
2022/01/19 06:03:52;;;;;;;30.87;14.23;;;4.90;99.90;;;;;;5160424;28;20187;-48
2022/01/19 06:06:22;;;;;;;23.40;12.97;;;4.90;99.90;;;;;;5155809;28;20180;-47
2022/01/19 06:09:09;;;;;;;28.27;11.37;;;5.00;99.90;;;;;;5162599;28;20446;-47
2022/01/19 06:11:42;;;;;;;24.10;13.87;;;4.90;99.90;;;;;;5161970;28;20224;-47
2022/01/19 06:14:13;;;;;;;18.23;12.23;;;4.90;99.90;;;;;;5158844;28;20796;-47
2022/01/19 06:16:45;;;;;;;25.13;13.53;;;4.80;99.90;;;;;;5162300;28;20430;-48
2022/01/19 06:19:19;;;;;;;24.73;12.40;;;4.80;99.90;;;;;;5162986;28;20186;-47
2022/01/19 06:21:50;;;;;;;21.40;12.30;;;4.80;99.90;;;;;;5145938;28;20459;-49
2022/01/19 06:24:21;;;;;;;21.63;12.67;;;4.80;99.90;;;;;;5158800;28;20545;-48
2022/01/19 06:26:52;;;;;;;23.50;12.73;;;4.80;99.90;;;;;;5157220;28;20443;-48
2022/01/19 06:29:24;;;;;;;20.90;12.50;;;4.80;99.90;;;;;;5136021;28;20809;-47
2022/01/19 06:31:54;;;;;;;22.00;12.27;;;4.80;99.90;;;;;;5158884;28;20298;-48
2022/01/19 06:34:25;;;;;;;27.27;14.20;;;4.80;99.90;;;;;;5159674;28;20517;-49
2022/01/19 06:36:56;;;;;;;31.20;13.60;;;4.80;99.90;;;;;;5154448;28;20226;-51
2022/01/19 06:39:26;;;;;;;25.87;14.67;;;4.90;99.90;;;;;;5141153;28;20651;-48
2022/01/19 06:41:57;;;;;;;23.10;12.97;;;4.80;99.90;;;;;;5155318;28;20699;-48
2022/01/19 06:44:27;;;;;;;28.70;13.40;;;4.70;99.90;;;;;;5140555;28;20526;-47
2022/01/19 06:46:58;;;;;;;25.33;14.23;;;4.70;99.90;;;;;;5141266;28;20185;-47
2022/01/19 06:49:28;;;;;;;33.67;13.00;;;4.70;99.90;;;;;;5156514;28;20172;-47
2022/01/19 06:52:00;;;;;;;23.97;13.47;;;4.70;99.90;;;;;;5143817;28;20209;-50
2022/01/19 06:54:30;;;;;;;26.50;14.83;;;4.70;99.90;;;;;;5146966;28;20276;-47
2022/01/19 06:57:01;;;;;;;36.77;15.13;;;4.70;99.90;;;;;;5153643;28;20441;-48
2022/01/19 06:59:32;;;;;;;24.83;13.70;;;4.70;99.90;;;;;;5160074;28;20183;-49
2022/01/19 07:02:03;;;;;;;29.90;14.77;;;4.70;99.90;;;;;;5157533;28;20772;-47
2022/01/19 07:04:33;;;;;;;27.47;13.27;;;4.70;99.90;;;;;;5159298;28;20462;-47
2022/01/19 07:07:04;;;;;;;25.57;13.10;;;4.70;99.90;;;;;;5155586;28;20322;-48
2022/01/19 07:09:34;;;;;;;27.90;13.40;;;4.70;99.90;;;;;;5134140;28;20178;-49
2022/01/19 07:12:05;;;;;;;22.40;13.50;;;4.80;99.90;;;;;;5156861;28;20215;-48
2022/01/19 07:14:36;;;;;;;25.10;13.73;;;4.70;99.90;;;;;;5133507;28;20307;-47
2022/01/19 07:17:06;;;;;;;26.73;12.47;;;4.70;99.90;;;;;;5156202;28;20513;-49
2022/01/19 07:19:37;;;;;;;25.27;12.97;;;4.70;99.90;;;;;;5164263;28;20589;-49
2022/01/19 07:22:08;;;;;;;24.13;12.73;;;4.80;99.90;;;;;;5146946;28;20220;-48
2022/01/19 07:24:38;;;;;;;22.77;10.90;;;4.70;99.90;;;;;;5161332;28;20181;-49
2022/01/19 07:27:09;;;;;;;19.47;11.50;;;4.70;99.90;;;;;;5156331;28;20173;-49
2022/01/19 07:29:39;;;;;;;28.73;12.37;;;4.70;99.90;;;;;;5151432;28;20185;-49
2022/01/19 07:32:12;;;;;;;20.27;11.17;;;4.70;99.90;;;;;;5144125;28;20568;-48
2022/01/19 07:34:42;;;;;;;20.37;10.80;;;4.60;99.90;;;;;;5134050;28;20190;-50
2022/01/19 07:37:13;;;;;;;22.30;10.10;;;4.60;99.90;;;;;;5137371;28;20438;-48
2022/01/19 07:39:44;;;;;;;27.23;10.57;;;4.60;99.90;;;;;;5155999;28;20428;-48
2022/01/19 07:42:14;;;;;;;25.33;12.03;;;4.60;99.90;;;;;;5157592;28;20218;-47
2022/01/19 07:44:45;;;;;;;18.57;9.10;;;4.60;99.90;;;;;;5154275;28;20186;-48
2022/01/19 07:47:16;;;;;;;16.20;8.70;;;4.60;99.90;;;;;;5139589;28;20187;-48
2022/01/19 07:49:47;;;;;;;19.13;9.27;;;4.70;99.90;;;;;;5155507;28;20584;-49
2022/01/19 07:52:18;;;;;;;22.93;9.33;;;4.80;99.90;;;;;;5156409;28;20466;-48
2022/01/19 07:54:49;;;;;;;18.57;8.67;;;4.90;99.90;;;;;;5140051;28;20524;-48
2022/01/19 07:57:19;;;;;;;15.70;8.40;;;4.90;99.90;;;;;;5139753;28;20252;-50
2022/01/19 07:59:50;;;;;;;19.10;9.27;;;4.90;99.90;;;;;;5153962;28;20214;-52
2022/01/19 08:02:21;;;;;;;13.20;8.33;;;5.00;99.90;;;;;;5141485;28;20216;-49
2022/01/19 08:04:51;;;;;;;20.97;9.33;;;5.00;99.90;;;;;;5154644;28;20184;-48
2022/01/19 08:07:21;;;;;;;29.53;8.93;;;5.10;99.90;;;;;;5139189;28;20184;-48
2022/01/19 08:09:52;;;;;;;17.80;8.73;;;5.10;99.90;;;;;;5155104;28;20521;-48
2022/01/19 08:12:23;;;;;;;22.77;7.80;;;5.10;99.90;;;;;;5134814;28;20229;-48
2022/01/19 08:14:53;;;;;;;25.53;8.20;;;5.20;99.90;;;;;;5155269;28;20203;-48
2022/01/19 08:17:26;;;;;;;19.60;8.97;;;5.20;99.90;;;;;;5157668;28;20187;-49
2022/01/19 08:19:57;;;;;;;23.50;9.07;;;5.20;99.90;;;;;;5152230;28;20652;-48
2022/01/19 08:22:28;;;;;;;18.73;7.70;;;5.20;99.90;;;;;;5159903;28;20474;-47
2022/01/19 08:24:59;;;;;;;15.10;8.07;;;5.20;99.90;;;;;;5158791;28;20852;-47
2022/01/19 08:27:29;;;;;;;16.90;7.57;;;5.30;99.90;;;;;;5155254;28;20644;-52
2022/01/19 08:30:09;;;;;;;13.70;6.80;;;5.20;99.90;;;;;;5134697;28;20240;-48
2022/01/19 08:32:40;;;;;;;17.10;10.60;;;5.20;99.90;;;;;;5130761;28;20314;-49
2022/01/19 08:35:11;;;;;;;12.33;8.60;;;5.20;99.90;;;;;;5154103;28;20439;-47
2022/01/19 08:37:41;;;;;;;14.50;8.37;;;5.20;99.90;;;;;;5151593;28;20259;-48
2022/01/19 08:40:13;;;;;;;12.20;7.10;;;5.10;99.90;;;;;;5157326;28;20483;-48
2022/01/19 08:42:43;;;;;;;22.53;8.17;;;5.10;99.90;;;;;;5156106;28;20190;-49
2022/01/19 08:45:14;;;;;;;12.53;6.57;;;5.10;99.90;;;;;;5157745;28;21060;-48
2022/01/19 08:47:46;;;;;;;26.43;6.43;;;5.10;99.90;;;;;;5157028;28;20195;-48
2022/01/19 08:50:17;;;;;;;16.97;6.53;;;5.10;99.90;;;;;;5139790;28;20326;-48
2022/01/19 08:52:48;;;;;;;12.40;6.70;;;5.10;99.90;;;;;;5153451;28;20444;-48
2022/01/19 08:55:19;;;;;;;12.97;6.83;;;5.10;99.90;;;;;;5152761;28;20437;-48
2022/01/19 08:57:51;;;;;;;11.93;6.67;;;5.00;99.90;;;;;;5155813;28;20177;-48
2022/01/19 09:00:22;;;;;;;8.93;6.00;;;5.10;99.90;;;;;;5135000;28;20519;-50
2022/01/19 09:02:53;;;;;;;10.73;7.63;;;5.00;99.90;;;;;;5155283;28;20451;-48
2022/01/19 09:05:23;;;;;;;18.90;6.87;;;5.10;99.90;;;;;;5138572;28;20436;-48
2022/01/19 09:07:55;;;;;;;14.60;7.50;;;5.10;99.90;;;;;;5159477;28;20573;-48
2022/01/19 09:10:26;;;;;;;12.63;7.00;;;5.20;99.90;;;;;;5155379;28;20207;-47
2022/01/19 09:12:56;;;;;;;13.50;7.60;;;5.10;99.90;;;;;;5156859;28;20480;-48
2022/01/19 09:15:27;;;;;;;24.43;7.00;;;5.10;99.90;;;;;;5151506;28;20675;-48
2022/01/19 09:18:00;;;;;;;11.33;5.97;;;5.20;99.90;;;;;;5140863;28;20253;-52
2022/01/19 09:20:31;;;;;;;17.60;6.93;;;5.20;99.90;;;;;;5148370;28;20552;-50
2022/01/19 09:23:02;;;;;;;18.43;7.47;;;5.20;99.90;;;;;;5158536;28;20441;-50
2022/01/19 09:25:33;;;;;;;11.53;7.50;;;5.20;99.90;;;;;;5148150;28;20708;-49
2022/01/19 09:28:04;;;;;;;20.10;8.40;;;5.20;99.90;;;;;;5158818;28;20461;-50
2022/01/19 09:30:36;;;;;;;14.87;8.00;;;5.30;99.90;;;;;;5143198;28;20211;-48
2022/01/19 09:33:09;;;;;;;17.87;7.87;;;5.20;99.90;;;;;;5166464;28;20192;-48
2022/01/19 09:38:35;;;;;;;11.50;7.77;;;5.30;99.90;;;;;;5159124;28;20460;-50
2022/01/19 09:41:07;;;;;;;11.67;7.77;;;5.30;99.90;;;;;;5160826;28;20490;-48
2022/01/19 09:43:37;;;;;;;13.60;7.70;;;5.20;99.90;;;;;;5147976;28;20482;-49
2022/01/19 09:46:08;;;;;;;16.00;8.00;;;5.30;99.90;;;;;;5160175;28;20440;-49
2022/01/19 09:48:40;;;;;;;12.77;7.23;;;5.30;99.90;;;;;;5138749;28;20194;-50
2022/01/19 09:51:12;;;;;;;10.03;7.40;;;5.40;99.90;;;;;;5164604;28;20714;-48
2022/01/19 09:53:43;;;;;;;12.43;7.87;;;5.40;99.90;;;;;;5146281;28;20810;-48
2022/01/19 09:56:19;;;;;;;12.50;8.13;;;5.50;99.90;;;;;;5159223;28;20537;-48
2022/01/19 09:58:49;;;;;;;11.63;7.57;;;5.50;99.90;;;;;;5160508;28;20430;-49
2022/01/19 10:01:22;;;;;;;14.13;8.20;;;5.50;99.90;;;;;;5156183;28;20491;-49
2022/01/19 10:03:53;;;;;;;17.47;8.40;;;5.60;99.90;;;;;;5154941;28;20621;-48
2022/01/19 10:06:24;;;;;;;11.73;7.57;;;5.70;99.90;;;;;;5147783;28;20463;-48
2022/01/19 10:08:56;;;;;;;15.27;8.60;;;5.70;99.90;;;;;;5159131;28;20266;-49
2022/01/19 10:17:03;;;;;;;16.60;9.20;;;5.60;99.90;;;;;;5178711;23;20507;-53
2022/01/19 10:19:49;;;;;;;14.97;7.53;;;5.60;99.90;;;;;;5147706;28;20451;-52
2022/01/19 10:22:22;;;;;;;12.00;7.47;;;5.60;99.90;;;;;;5162603;28;20499;-50
2022/01/19 10:24:53;;;;;;;11.27;8.30;;;5.70;99.90;;;;;;5159832;28;20445;-53
2022/01/19 10:27:39;;;;;;;11.50;7.47;;;5.70;99.90;;;;;;5124761;28;20437;-51
2022/01/19 10:30:09;;;;;;;10.07;7.70;;;5.70;99.90;;;;;;5125596;28;20432;-52
2022/01/19 10:32:47;;;;;;;11.93;7.80;;;5.60;99.90;;;;;;5141842;28;20921;-50
2022/01/19 10:35:35;;;;;;;14.93;9.00;;;5.60;99.90;;;;;;5142640;28;20282;-49
2022/01/19 10:38:12;;;;;;;10.17;8.13;;;5.70;99.90;;;;;;5140777;28;20519;-53
2022/01/19 10:40:44;;;;;;;15.30;8.93;;;5.70;99.90;;;;;;5143132;28;20476;-50
2022/01/19 10:43:42;;;;;;;17.30;10.10;;;5.80;99.90;;;;;;5142971;28;20444;-51
2022/01/19 10:46:15;;;;;;;10.80;9.20;;;5.90;99.90;;;;;;5134220;28;20555;-51
2022/01/19 10:48:46;;;;;;;13.50;9.60;;;6.00;99.90;;;;;;5126129;28;20461;-51
2022/01/19 10:51:20;;;;;;;17.50;10.20;;;6.20;99.90;;;;;;5147018;28;20796;-51
2022/01/19 10:54:12;;;;;;;15.07;9.60;;;6.20;99.90;;;;;;5143289;28;20181;-51
2022/01/19 10:56:47;;;;;;;13.00;9.33;;;6.30;99.90;;;;;;5148629;28;20453;-51
2022/01/19 10:59:18;;;;;;;10.13;8.87;;;6.20;99.90;;;;;;5120841;28;20455;-54
2022/01/19 11:01:53;;;;;;;14.60;10.13;;;6.20;99.90;;;;;;5125386;28;20839;-52
2022/01/19 11:04:30;;;;;;;12.97;9.33;;;6.30;99.90;;;;;;5136391;28;20475;-52
2022/01/19 11:07:03;;;;;;;17.93;10.80;;;6.20;99.90;;;;;;5140083;28;20457;-52
2022/01/19 11:09:43;;;;;;;21.13;11.80;;;6.20;99.90;;;;;;5143704;28;20532;-52
2022/01/19 11:12:18;;;;;;;16.00;11.50;;;6.20;99.90;;;;;;5137178;28;20442;-52
2022/01/19 11:14:48;;;;;;;19.60;12.33;;;6.30;99.90;;;;;;5135863;28;20499;-51
2022/01/19 11:17:22;;;;;;;19.97;12.80;;;6.30;99.90;;;;;;5140169;28;20470;-52
2022/01/19 11:19:53;;;;;;;25.87;12.27;;;6.30;99.90;;;;;;5126048;28;20553;-52
2022/01/19 11:22:36;;;;;;;22.60;13.53;;;6.20;99.90;;;;;;5144736;28;20465;-51
2022/01/19 11:25:25;;;;;;;27.90;12.37;;;6.00;99.90;;;;;;5141669;28;20181;-53
2022/01/19 11:27:55;;;;;;;12.83;10.73;;;6.00;99.90;;;;;;5118717;28;20507;-52
2022/01/19 11:30:34;;;;;;;15.40;10.73;;;5.80;99.90;;;;;;5141449;28;20445;-53
2022/01/19 11:33:15;;;;;;;15.87;12.43;;;5.80;99.90;;;;;;5143061;28;20568;-52
2022/01/19 11:35:47;;;;;;;17.43;10.20;;;5.70;99.90;;;;;;5139523;28;20436;-51
2022/01/19 11:38:31;;;;;;;15.23;11.43;;;5.80;99.90;;;;;;5144091;28;20409;-54
2022/01/19 11:41:09;;;;;;;19.47;12.23;;;5.70;99.90;;;;;;5139008;28;20503;-52
2022/01/19 11:43:56;;;;;;;20.23;12.50;;;5.60;99.90;;;;;;5137262;28;20448;-51
2022/01/19 11:46:33;;;;;;;18.83;12.30;;;5.70;99.90;;;;;;5129556;28;20484;-50
2022/01/19 11:49:05;;;;;;;24.67;14.33;;;5.50;99.90;;;;;;5124386;28;20547;-52
2022/01/19 11:51:40;;;;;;;24.30;14.90;;;5.40;99.90;;;;;;5120427;28;20516;-52
2022/01/19 11:54:16;;;;;;;24.53;15.70;;;5.30;99.90;;;;;;5122835;28;21055;-52
2022/01/19 11:56:59;;;;;;;24.90;15.47;;;5.20;99.90;;;;;;5123682;28;20590;-52
2022/01/19 11:59:31;;;;;;;27.00;16.13;;;5.30;99.90;;;;;;5138522;28;20443;-53
2022/01/19 12:02:20;;;;;;;25.13;14.87;;;5.20;99.90;;;;;;5143388;28;20476;-53
2022/01/19 12:04:59;;;;;;;21.23;14.53;;;5.30;99.90;;;;;;5143117;28;20452;-51
2022/01/19 12:07:38;;;;;;;26.03;15.40;;;5.30;99.90;;;;;;5126263;28;20459;-52
2022/01/19 12:10:19;;;;;;;16.93;12.50;;;5.40;99.90;;;;;;5123077;28;20454;-53
2022/01/19 12:16:13;;;;;;;23.43;12.60;;;5.20;99.90;;;;;;5141894;28;20482;-53
2022/01/19 12:18:47;;;;;;;21.00;12.90;;;5.00;99.90;;;;;;5143908;28;20434;-52
2022/01/19 12:21:20;;;;;;;18.00;13.27;;;4.90;99.90;;;;;;5124889;28;20471;-52
2022/01/19 12:23:51;;;;;;;20.67;12.97;;;4.80;99.90;;;;;;5140694;28;20443;-55
2022/01/19 12:26:22;;;;;;;18.13;12.93;;;4.70;99.90;;;;;;5123562;28;20451;-51
2022/01/19 12:28:54;;;;;;;22.17;13.77;;;4.80;99.90;;;;;;5143862;28;20229;-53
2022/01/19 12:31:24;;;;;;;16.50;11.53;;;4.60;99.90;;;;;;5131952;28;20249;-52
2022/01/19 12:34:04;;;;;;;22.40;12.43;;;4.70;99.90;;;;;;5130226;28;20450;-53
2022/01/19 12:36:47;;;;;;;19.97;12.77;;;4.60;99.90;;;;;;5139006;28;20622;-50
2022/01/19 12:39:38;;;;;;;17.07;12.23;;;4.50;99.90;;;;;;5142858;28;20541;-50
2022/01/19 12:42:18;;;;;;;16.60;11.60;;;4.50;99.90;;;;;;5138922;28;20558;-51
2022/01/19 12:44:53;;;;;;;16.23;12.17;;;4.60;99.90;;;;;;5125909;28;20441;-52
2022/01/19 12:47:29;;;;;;;17.50;13.00;;;4.60;99.90;;;;;;5142320;28;20444;-52
2022/01/19 12:50:08;;;;;;;18.33;13.00;;;4.50;99.90;;;;;;5145847;28;20446;-52
2022/01/19 12:52:47;;;;;;;14.40;12.40;;;4.40;99.90;;;;;;5147369;28;20454;-53
2022/01/19 12:55:21;;;;;;;14.93;11.80;;;4.40;99.90;;;;;;5146095;28;20457;-51
2022/01/19 12:57:52;;;;;;;17.27;13.53;;;4.40;99.90;;;;;;5144532;28;20434;-50
2022/01/19 13:00:25;;;;;;;21.87;11.83;;;4.40;99.90;;;;;;5141429;28;20536;-52
2022/01/19 13:02:59;;;;;;;14.07;11.60;;;4.50;99.90;;;;;;5128174;28;20556;-53
2022/01/19 13:05:31;;;;;;;17.50;13.60;;;4.60;99.90;;;;;;5141950;28;20449;-53
2022/01/19 13:08:07;;;;;;;17.40;12.87;;;4.60;99.90;;;;;;5130178;28;20443;-53
2022/01/19 13:10:43;;;;;;;17.37;13.00;;;4.60;99.90;;;;;;5137563;28;20437;-52
2022/01/19 13:13:25;;;;;;;16.87;12.37;;;4.60;99.90;;;;;;5144250;28;20433;-51
2022/01/19 13:15:58;;;;;;;19.37;14.80;;;4.70;99.90;;;;;;5144743;28;20508;-50
2022/01/19 13:18:38;;;;;;;21.27;15.40;;;4.60;99.90;;;;;;5144074;28;20466;-51
2022/01/19 13:21:13;;;;;;;15.00;12.47;;;4.60;99.90;;;;;;5128165;28;20848;-52
2022/01/19 13:24:14;;;;;;;18.17;13.90;;;4.50;99.90;;;;;;5137891;28;20424;-51
2022/01/19 13:26:48;;;;;;;22.07;15.63;;;4.50;99.90;;;;;;5135616;28;20554;-51
2022/01/19 13:29:22;;;;;;;21.67;14.53;;;4.60;99.90;;;;;;5138185;28;20429;-51
2022/01/19 13:32:05;;;;;;;18.20;14.67;;;4.50;99.90;;;;;;5137670;28;20443;-51
2022/01/19 13:34:59;;;;;;;21.00;16.10;;;4.40;99.90;;;;;;5140153;28;20505;-53
2022/01/19 13:37:55;;;;;;;20.87;15.87;;;4.40;99.90;;;;;;5140141;28;20442;-52
2022/01/19 13:40:31;;;;;;;19.80;15.30;;;4.40;99.90;;;;;;5126128;28;20453;-52
2022/01/19 13:43:04;;;;;;;15.80;13.97;;;4.30;99.90;;;;;;5141578;28;20516;-52
2022/01/19 13:50:53;;;;;;;16.27;12.30;;;4.20;99.90;;;;;;5143371;28;20957;-51
2022/01/19 13:53:27;;;;;;;13.07;11.07;;;4.20;99.90;;;;;;5127055;28;20437;-51
2022/01/19 13:56:04;;;;;;;12.27;9.70;;;4.20;99.90;;;;;;5141367;28;20452;-52
2022/01/19 13:58:42;;;;;;;13.00;11.40;;;4.20;99.90;;;;;;5143432;28;21031;-52
2022/01/19 14:01:19;;;;;;;11.27;9.80;;;4.20;99.90;;;;;;5125383;28;20461;-52
2022/01/19 14:03:55;;;;;;;10.47;9.20;;;4.10;99.90;;;;;;5143213;28;20444;-51
2022/01/19 14:06:31;;;;;;;12.63;9.63;;;4.10;99.90;;;;;;5124902;28;20511;-52
2022/01/19 14:09:07;;;;;;;14.03;8.87;;;4.10;99.90;;;;;;5132630;28;20426;-53
2022/01/19 14:11:40;;;;;;;13.10;9.73;;;4.10;99.90;;;;;;5142521;28;20475;-52
2022/01/19 14:14:14;;;;;;;10.47;8.63;;;4.00;99.90;;;;;;5133208;28;20437;-53
2022/01/19 14:16:48;;;;;;;13.20;9.70;;;4.10;99.90;;;;;;5145914;28;20878;-53
2022/01/19 14:19:24;;;;;;;9.57;8.20;;;4.00;99.90;;;;;;5133212;28;20425;-50
2022/01/19 14:22:04;;;;;;;13.10;8.70;;;4.10;99.90;;;;;;5142765;28;20571;-51
2022/01/19 14:24:40;;;;;;;11.87;8.20;;;4.10;99.90;;;;;;5144640;28;20941;-52
2022/01/19 14:27:31;;;;;;;12.47;9.00;;;4.10;99.90;;;;;;5139920;28;20500;-50
2022/01/19 14:30:10;;;;;;;15.17;8.33;;;4.10;99.90;;;;;;5117158;28;20812;-51
2022/01/19 14:32:43;;;;;;;10.00;7.60;;;4.10;99.90;;;;;;5139420;28;20485;-51
2022/01/19 14:35:25;;;;;;;10.37;8.43;;;4.10;99.90;;;;;;5143664;28;20985;-51
2022/01/19 14:38:13;;;;;;;8.93;8.03;;;4.20;99.90;;;;;;5136976;28;21480;-52
2022/01/19 14:40:52;;;;;;;11.30;7.93;;;4.10;99.90;;;;;;5142030;28;20539;-51
2022/01/19 14:43:27;;;;;;;9.60;8.63;;;4.00;99.90;;;;;;5142275;28;20786;-52
2022/01/19 14:46:05;;;;;;;11.13;8.07;;;4.10;99.90;;;;;;5140475;28;20480;-51
2022/01/19 14:48:44;;;;;;;15.23;7.33;;;4.10;99.90;;;;;;5145041;28;20454;-50
2022/01/19 14:51:29;;;;;;;9.77;8.67;;;4.30;99.90;;;;;;5140229;28;20438;-50